Time;durP1;ratioP1;P1;durP2;ratioP2;P2;SDS_P1;SDS_P2;PMS_P1;PMS_P2;Temp;Humidity;BMP_temperature;BMP_pressure;BME280_temperature;BME280_humidity;BME280_pressure;Samples;Min_cycle;Max_cycle;Signal;HPM_P1;HPM_P2
2023/01/31 00:00:53;;;;;;;0.20;0.20;;;;;;;5.48;91.75;100893.66;4943758;29;20042;-57
2023/01/31 00:03:18;;;;;;;0.20;0.20;;;;;;;5.53;91.77;100894.59;4947629;29;20397;-60
2023/01/31 00:05:44;;;;;;;0.20;0.20;;;;;;;5.55;91.95;100892.41;4942901;29;20035;-61
2023/01/31 00:08:11;;;;;;;0.20;0.20;;;;;;;5.66;91.94;100882.94;4947451;29;20032;-58
2023/01/31 00:10:36;;;;;;;0.30;0.30;;;;;;;5.57;92.46;100900.88;4945677;29;20050;-61
2023/01/31 00:13:02;;;;;;;0.20;0.20;;;;;;;5.60;91.71;100898.34;4950054;29;20027;-59
2023/01/31 00:15:27;;;;;;;0.30;0.30;;;;;;;5.67;91.12;100903.25;4949224;28;20062;-59
2023/01/31 00:17:54;;;;;;;0.20;0.20;;;;;;;5.65;91.24;100897.44;4941834;29;20117;-58
2023/01/31 00:20:20;;;;;;;0.20;0.20;;;;;;;5.50;92.54;100912.81;4948419;29;20514;-60
2023/01/31 00:22:45;;;;;;;0.20;0.20;;;;;;;5.61;92.22;100893.81;4945487;29;20051;-57
2023/01/31 00:25:10;;;;;;;0.20;0.20;;;;;;;5.38;92.69;100898.53;4942525;28;20027;-56
2023/01/31 00:27:36;;;;;;;0.20;0.20;;;;;;;5.26;94.20;100896.47;4950434;28;20039;-57
2023/01/31 00:30:02;;;;;;;0.85;0.85;;;;;;;5.10;95.52;100898.03;4943292;28;20043;-61
2023/01/31 00:32:27;;;;;;;0.30;0.30;;;;;;;5.41;94.52;100908.56;4938911;28;20606;-58
2023/01/31 00:34:54;;;;;;;0.20;0.20;;;;;;;5.41;94.03;100914.72;4937588;29;20039;-57
2023/01/31 00:37:21;;;;;;;0.22;0.22;;;;;;;5.21;95.16;100920.63;4940087;28;20090;-59
2023/01/31 00:39:46;;;;;;;0.20;0.20;;;;;;;5.36;94.71;100919.41;4941325;29;20122;-58
2023/01/31 00:42:15;;;;;;;0.20;0.20;;;;;;;5.62;93.74;100920.19;4948258;29;20304;-55
2023/01/31 00:44:41;;;;;;;0.20;0.20;;;;;;;5.62;92.85;100903.38;4941218;29;20502;-58
2023/01/31 00:47:06;;;;;;;0.20;0.20;;;;;;;5.76;92.05;100922.72;4937226;29;20952;-59
2023/01/31 00:49:32;;;;;;;0.20;0.20;;;;;;;5.62;92.78;100920.19;4942820;28;20027;-61
2023/01/31 00:51:57;;;;;;;0.20;0.20;;;;;;;5.59;93.79;100912.03;4945050;29;20497;-59
2023/01/31 00:54:23;;;;;;;0.20;0.20;;;;;;;5.73;93.51;100920.69;4945775;28;20486;-58
2023/01/31 00:56:48;;;;;;;0.30;0.30;;;;;;;5.76;92.19;100928.06;4934899;29;20040;-58
2023/01/31 00:59:14;;;;;;;0.20;0.20;;;;;;;5.95;92.28;100934.66;4931129;29;20038;-59
2023/01/31 01:01:40;;;;;;;0.30;0.30;;;;;;;5.88;93.98;100933.56;4944613;29;20032;-58
2023/01/31 01:04:05;;;;;;;0.25;0.25;;;;;;;6.02;94.28;100942.22;4944525;29;20036;-58
2023/01/31 01:06:32;;;;;;;0.15;0.15;;;;;;;5.73;96.30;100950.06;4944287;28;20031;-59
2023/01/31 01:08:58;;;;;;;0.20;0.20;;;;;;;5.61;97.35;100949.91;4940507;29;20098;-59
2023/01/31 01:11:27;;;;;;;0.20;0.20;;;;;;;5.80;96.76;100948.50;4948888;29;20035;-57
2023/01/31 01:13:53;;;;;;;0.57;0.52;;;;;;;5.53;98.78;100938.88;4944847;29;20035;-60
2023/01/31 01:16:22;;;;;;;0.20;0.20;;;;;;;5.37;99.13;100939.66;4944711;28;20035;-60
2023/01/31 01:18:49;;;;;;;0.20;0.20;;;;;;;5.34;99.00;100933.06;4947829;29;20455;-59
2023/01/31 01:21:26;;;;;;;0.22;0.22;;;;;;;5.39;98.68;100938.25;4939443;29;20432;-59
2023/01/31 01:23:54;;;;;;;0.57;0.57;;;;;;;5.52;98.28;100949.13;4946057;29;20035;-61
2023/01/31 01:26:26;;;;;;;0.20;0.20;;;;;;;5.43;96.95;100939.22;4945073;29;20038;-59
2023/01/31 01:28:54;;;;;;;0.20;0.20;;;;;;;5.47;97.16;100940.16;4942974;29;20098;-56
2023/01/31 01:31:20;;;;;;;0.20;0.20;;;;;;;5.39;97.18;100945.47;4950352;29;20469;-59
2023/01/31 01:33:47;;;;;;;0.20;0.20;;;;;;;5.33;97.63;100954.72;4950477;28;20363;-57
2023/01/31 01:36:16;;;;;;;0.20;0.20;;;;;;;5.11;98.55;100950.28;4946494;29;20402;-59
2023/01/31 01:38:42;;;;;;;0.20;0.20;;;;;;;5.01;99.68;100937.25;4955514;28;20086;-60
2023/01/31 01:41:09;;;;;;;0.20;0.20;;;;;;;5.12;99.11;100943.88;4948820;29;20114;-59
2023/01/31 01:43:42;;;;;;;0.20;0.20;;;;;;;4.95;99.33;100948.38;4945611;29;20035;-60
2023/01/31 01:46:15;;;;;;;0.20;0.20;;;;;;;5.09;99.29;100946.38;4948772;29;20621;-59
2023/01/31 01:48:43;;;;;;;0.30;0.30;;;;;;;5.11;98.33;100947.63;4944347;29;20032;-56
2023/01/31 01:51:11;;;;;;;0.20;0.20;;;;;;;5.04;98.62;100947.31;4933278;29;20094;-54
2023/01/31 01:53:42;;;;;;;0.17;0.17;;;;;;;4.98;99.21;100948.53;4939304;29;20067;-56
2023/01/31 01:56:12;;;;;;;0.38;0.38;;;;;;;4.98;99.33;100947.75;4932282;29;20036;-58
2023/01/31 01:58:53;;;;;;;0.30;0.30;;;;;;;5.12;99.35;100961.75;4938013;29;20027;-56
2023/01/31 02:01:21;;;;;;;0.20;0.20;;;;;;;5.16;98.33;100963.50;4947479;28;20122;-57
2023/01/31 02:03:48;;;;;;;0.20;0.20;;;;;;;5.13;98.62;100953.44;4947097;29;20438;-58
2023/01/31 02:06:14;;;;;;;0.20;0.20;;;;;;;5.26;99.12;100957.09;4941822;28;20091;-57
2023/01/31 02:08:42;;;;;;;0.25;0.25;;;;;;;5.34;97.66;100957.09;4942103;29;20031;-54
2023/01/31 02:11:13;;;;;;;0.30;0.30;;;;;;;5.36;97.85;100962.91;4942534;29;20038;-59
2023/01/31 02:13:40;;;;;;;0.20;0.20;;;;;;;5.52;97.87;100979.25;4945217;29;20406;-57
2023/01/31 02:16:12;;;;;;;0.20;0.20;;;;;;;5.53;97.32;100970.94;4943699;29;20031;-53
2023/01/31 02:18:39;;;;;;;0.20;0.20;;;;;;;5.62;97.05;100980.84;4918958;29;20405;-53
2023/01/31 02:21:26;;;;;;;0.30;0.30;;;;;;;5.74;96.45;100986.34;4944795;29;20042;-57
2023/01/31 02:24:16;;;;;;;0.20;0.20;;;;;;;5.83;95.58;100966.59;4941202;29;20097;-58
2023/01/31 02:26:51;;;;;;;0.20;0.20;;;;;;;5.81;96.14;100973.31;4949147;29;20469;-61
2023/01/31 02:29:45;;;;;;;0.20;0.20;;;;;;;5.79;97.09;100983.53;4942625;29;20057;-56
2023/01/31 02:32:35;;;;;;;0.20;0.20;;;;;;;5.77;96.78;100980.41;4949802;29;20039;-60
2023/01/31 02:35:14;;;;;;;0.28;0.28;;;;;;;5.86;96.20;100975.88;4957567;28;20046;-58
2023/01/31 02:38:23;;;;;;;0.20;0.20;;;;;;;5.97;96.37;100969.09;4942100;29;20431;-58
2023/01/31 02:40:59;;;;;;;0.20;0.20;;;;;;;5.97;95.82;100985.91;4931457;29;20530;-59
2023/01/31 02:46:48;;;;;;;0.20;0.20;;;;;;;5.71;97.92;100977.06;4944799;28;20032;-60
2023/01/31 02:49:45;;;;;;;0.20;0.20;;;;;;;6.05;96.53;100989.69;4941891;29;20023;-58
2023/01/31 02:52:47;;;;;;;0.30;0.30;;;;;;;6.12;95.82;100979.28;4936820;29;20047;-60
2023/01/31 02:58:11;;;;;;;0.20;0.20;;;;;;;6.04;97.18;100985.44;4944522;29;20031;-55
2023/01/31 03:00:40;;;;;;;0.35;0.35;;;;;;;5.85;97.10;100990.31;4939467;29;20119;-57
2023/01/31 03:03:11;;;;;;;0.25;0.25;;;;;;;5.93;97.44;100981.50;4932532;29;20059;-57
2023/01/31 03:05:38;;;;;;;0.30;0.30;;;;;;;5.85;97.75;100996.44;4945344;29;20114;-58
2023/01/31 03:08:06;;;;;;;0.30;0.30;;;;;;;6.01;96.86;100988.75;4940618;29;20182;-60
2023/01/31 03:10:59;;;;;;;0.20;0.20;;;;;;;5.91;96.88;100979.16;4935344;29;20391;-57
2023/01/31 03:13:50;;;;;;;0.13;0.13;;;;;;;5.90;96.69;100968.78;4947665;29;20027;-57
2023/01/31 03:19:26;;;;;;;0.20;0.20;;;;;;;5.98;96.25;100981.38;4934152;29;20039;-58
2023/01/31 03:22:04;;;;;;;0.20;0.20;;;;;;;5.89;96.12;100972.53;4940252;29;20039;-58
2023/01/31 03:24:30;;;;;;;0.20;0.20;;;;;;;5.81;96.65;100970.63;4947050;29;20746;-58
2023/01/31 03:27:01;;;;;;;0.32;0.32;;;;;;;5.85;97.69;100960.91;4940059;29;20098;-59
2023/01/31 03:29:33;;;;;;;0.20;0.20;;;;;;;5.86;96.09;100962.50;4943558;28;20043;-57
2023/01/31 03:32:10;;;;;;;0.20;0.20;;;;;;;5.80;96.87;100963.72;4946951;29;20499;-56
2023/01/31 03:34:36;;;;;;;0.20;0.20;;;;;;;5.91;96.03;100963.13;4952532;29;20438;-61
2023/01/31 03:37:11;;;;;;;0.20;0.20;;;;;;;5.74;97.07;100954.28;4952980;29;20031;-61
2023/01/31 03:40:03;;;;;;;0.20;0.20;;;;;;;5.47;99.48;100953.50;4953599;29;20035;-54
2023/01/31 03:42:38;;;;;;;0.30;0.30;;;;;;;5.35;100.00;100955.22;4952689;29;20492;-59
2023/01/31 03:45:15;;;;;;;0.20;0.20;;;;;;;5.57;99.04;100954.28;4950985;29;20031;-62
2023/01/31 03:47:44;;;;;;;0.30;0.30;;;;;;;5.76;97.76;100957.44;4943582;28;20053;-54
2023/01/31 03:50:35;;;;;;;0.20;0.20;;;;;;;5.84;97.24;100964.69;4932198;28;20042;-60
2023/01/31 03:53:19;;;;;;;0.20;0.20;;;;;;;5.62;98.47;100962.13;4940476;28;20035;-62
2023/01/31 03:55:52;;;;;;;0.20;0.20;;;;;;;5.73;97.73;100969.53;4938000;29;20462;-61
2023/01/31 03:58:20;;;;;;;0.20;0.20;;;;;;;5.90;97.51;100966.91;4948965;29;20402;-62
2023/01/31 04:00:49;;;;;;;0.20;0.20;;;;;;;6.06;96.35;100973.31;4954776;28;20438;-60
2023/01/31 04:03:32;;;;;;;0.20;0.20;;;;;;;6.10;96.36;100965.44;4945914;29;20122;-58
2023/01/31 04:05:58;;;;;;;0.20;0.20;;;;;;;6.17;95.40;100974.59;4950760;29;20118;-57
2023/01/31 04:08:24;;;;;;;0.20;0.20;;;;;;;5.96;96.59;100976.31;4948334;29;20110;-60
2023/01/31 04:10:59;;;;;;;0.20;0.20;;;;;;;6.14;96.18;100969.06;4932314;29;20031;-59
2023/01/31 04:13:24;;;;;;;0.20;0.20;;;;;;;6.22;95.90;100978.97;4943672;28;20094;-61
2023/01/31 04:15:50;;;;;;;0.20;0.20;;;;;;;6.23;95.21;100975.97;4944607;29;20040;-61
2023/01/31 04:18:15;;;;;;;0.20;0.20;;;;;;;6.21;95.55;100975.50;4950733;29;20394;-59
2023/01/31 04:20:41;;;;;;;0.20;0.20;;;;;;;6.28;95.78;100969.69;4953598;29;20066;-55
2023/01/31 04:23:06;;;;;;;0.20;0.20;;;;;;;6.26;95.80;100971.88;4940410;28;20046;-59
2023/01/31 04:25:32;;;;;;;0.20;0.20;;;;;;;6.28;95.22;100972.34;4948893;29;20453;-62
2023/01/31 04:27:57;;;;;;;0.85;0.85;;;;;;;6.21;96.09;100964.03;4945765;29;20490;-57
2023/01/31 04:30:23;;;;;;;0.20;0.20;;;;;;;6.33;96.18;100959.59;4945671;29;20043;-58
2023/01/31 04:32:48;;;;;;;0.20;0.20;;;;;;;6.39;95.04;100958.31;4943034;28;20048;-61
2023/01/31 04:35:14;;;;;;;0.20;0.20;;;;;;;6.42;95.41;100958.78;4953148;29;20046;-58
2023/01/31 04:37:39;;;;;;;0.20;0.20;;;;;;;6.38;95.68;100958.66;4953847;28;20038;-58
2023/01/31 04:40:05;;;;;;;0.20;0.20;;;;;;;6.29;95.63;100965.91;4950213;28;20035;-62
2023/01/31 04:42:31;;;;;;;0.30;0.30;;;;;;;6.33;95.64;100953.44;4953043;29;20031;-62
2023/01/31 04:44:56;;;;;;;0.20;0.20;;;;;;;6.44;95.87;100952.03;4952000;28;20402;-57
2023/01/31 04:47:22;;;;;;;0.20;0.20;;;;;;;6.41;96.32;100949.97;4950015;28;20035;-61
2023/01/31 04:49:47;;;;;;;0.20;0.20;;;;;;;6.29;96.49;100955.22;4953951;28;20051;-58
2023/01/31 04:52:13;;;;;;;0.20;0.20;;;;;;;6.17;97.81;100950.53;4949595;29;20134;-55
2023/01/31 04:54:38;;;;;;;0.20;0.20;;;;;;;6.11;98.59;100959.81;4948952;29;20027;-59
2023/01/31 04:57:03;;;;;;;0.20;0.20;;;;;;;6.28;97.35;100943.72;4952392;28;20411;-58
2023/01/31 04:59:29;;;;;;;0.20;0.20;;;;;;;6.30;97.40;100946.09;4953153;28;20110;-61
2023/01/31 05:01:55;;;;;;;0.20;0.20;;;;;;;5.98;99.66;100944.72;4951666;29;20054;-58
2023/01/31 05:04:21;;;;;;;0.20;0.20;;;;;;;5.99;100.00;100950.84;4951064;28;20083;-57
2023/01/31 05:06:47;;;;;;;0.20;0.20;;;;;;;6.12;99.97;100947.22;4952122;29;20489;-55
2023/01/31 05:09:13;;;;;;;0.20;0.20;;;;;;;6.12;100.00;100947.22;4943148;28;20031;-60
2023/01/31 05:11:38;;;;;;;0.20;0.20;;;;;;;6.15;100.00;100950.06;4951681;28;20094;-61
2023/01/31 05:14:04;;;;;;;0.15;0.15;;;;;;;6.05;100.00;100960.28;4948793;29;20454;-60
2023/01/31 05:16:29;;;;;;;0.20;0.20;;;;;;;6.09;100.00;100961.22;4950912;29;20035;-58
2023/01/31 05:18:55;;;;;;;0.20;0.20;;;;;;;6.12;100.00;100961.38;4952006;28;20046;-59
2023/01/31 05:21:20;;;;;;;0.17;0.17;;;;;;;5.79;100.00;100946.13;4950373;29;20505;-58
2023/01/31 05:23:45;;;;;;;0.20;0.20;;;;;;;5.87;100.00;100953.38;4953398;28;20035;-59
2023/01/31 05:26:11;;;;;;;0.20;0.20;;;;;;;6.12;100.00;100944.53;4947682;29;20496;-58
2023/01/31 05:28:36;;;;;;;0.20;0.20;;;;;;;6.21;100.00;100953.34;4948853;29;20031;-57
2023/01/31 05:31:05;;;;;;;0.20;0.20;;;;;;;6.26;100.00;100956.63;4948726;29;20734;-59
2023/01/31 05:33:32;;;;;;;0.20;0.20;;;;;;;6.20;100.00;100941.06;4952212;28;20027;-60
2023/01/31 05:35:58;;;;;;;0.20;0.20;;;;;;;6.44;100.00;100944.00;4952735;28;20086;-56
2023/01/31 05:38:23;;;;;;;0.20;0.20;;;;;;;6.36;100.00;100950.94;4944256;28;20032;-60
2023/01/31 05:40:49;;;;;;;0.20;0.20;;;;;;;6.46;100.00;100949.03;4950279;29;20057;-60
2023/01/31 05:43:15;;;;;;;0.20;0.20;;;;;;;6.46;100.00;100939.13;4945125;28;20039;-58
2023/01/31 05:45:40;;;;;;;0.20;0.20;;;;;;;6.36;100.00;100945.59;4946600;29;20039;-55
2023/01/31 05:48:06;;;;;;;0.25;0.25;;;;;;;6.29;100.00;100931.16;4951587;29;20047;-57
2023/01/31 05:50:31;;;;;;;0.20;0.20;;;;;;;6.36;100.00;100936.78;4953024;28;20478;-60
2023/01/31 05:53:08;;;;;;;0.20;0.20;;;;;;;6.51;100.00;100925.56;4949629;28;20182;-62
2023/01/31 05:55:33;;;;;;;0.20;0.20;;;;;;;6.63;99.88;100932.91;4943991;28;20047;-62
2023/01/31 05:57:59;;;;;;;0.20;0.20;;;;;;;6.69;99.57;100919.03;4941755;28;20047;-57
2023/01/31 06:00:25;;;;;;;0.20;0.20;;;;;;;6.79;98.13;100929.41;4931034;28;20068;-58
2023/01/31 06:02:51;;;;;;;0.20;0.20;;;;;;;6.70;98.68;100920.59;4952169;28;20164;-60
2023/01/31 06:05:17;;;;;;;0.20;0.20;;;;;;;6.66;98.75;100921.59;4943433;28;20031;-59
2023/01/31 06:07:42;;;;;;;0.20;0.20;;;;;;;6.66;99.30;100935.72;4940972;28;20380;-60
2023/01/31 06:10:10;;;;;;;0.20;0.20;;;;;;;6.59;99.75;100923.97;4943374;28;20042;-62
2023/01/31 06:12:36;;;;;;;0.20;0.20;;;;;;;6.51;99.67;100914.06;4943705;28;20062;-59
2023/01/31 06:15:02;;;;;;;0.20;0.20;;;;;;;6.56;100.00;100932.63;4941875;28;20487;-57
2023/01/31 06:17:28;;;;;;;0.20;0.20;;;;;;;6.55;99.34;100926.50;4943727;28;20122;-61
2023/01/31 06:19:53;;;;;;;0.20;0.20;;;;;;;6.55;99.35;100920.34;4930723;28;20538;-60
2023/01/31 06:22:19;;;;;;;0.28;0.28;;;;;;;6.50;99.99;100909.84;4945504;28;20027;-61
2023/01/31 06:24:45;;;;;;;0.20;0.20;;;;;;;6.49;100.00;100910.94;4939179;28;20038;-63
2023/01/31 06:27:10;;;;;;;0.20;0.20;;;;;;;6.57;99.56;100921.59;4943515;28;20031;-58
2023/01/31 06:29:36;;;;;;;0.20;0.20;;;;;;;6.50;99.54;100918.66;4939105;28;20031;-58
2023/01/31 06:32:02;;;;;;;0.20;0.20;;;;;;;6.52;100.00;100911.09;4942683;28;20091;-61
2023/01/31 06:34:27;;;;;;;0.28;0.28;;;;;;;6.66;99.15;100905.53;4929524;28;20514;-60
2023/01/31 06:36:53;;;;;;;0.20;0.20;;;;;;;6.68;99.21;100898.72;4939779;28;20092;-58
2023/01/31 06:39:18;;;;;;;0.30;0.30;;;;;;;6.56;98.63;100912.03;4934029;28;21310;-61
2023/01/31 06:41:44;;;;;;;0.20;0.20;;;;;;;6.45;100.00;100905.44;4935782;28;20499;-60
2023/01/31 06:44:09;;;;;;;0.20;0.20;;;;;;;6.45;100.00;100894.75;4937919;28;20047;-62
2023/01/31 06:46:35;;;;;;;0.20;0.20;;;;;;;6.61;99.51;100903.00;4939776;29;20038;-56
2023/01/31 06:49:01;;;;;;;0.20;0.20;;;;;;;6.73;98.68;100893.22;4937252;29;20064;-58
2023/01/31 06:51:26;;;;;;;0.20;0.20;;;;;;;6.74;98.41;100892.09;4938486;28;20511;-60
2023/01/31 06:53:52;;;;;;;0.40;0.40;;;;;;;6.51;99.32;100880.09;4941079;28;20490;-59
2023/01/31 06:56:18;;;;;;;0.20;0.20;;;;;;;6.74;98.75;100881.38;4936405;28;20023;-59
2023/01/31 06:58:43;;;;;;;0.20;0.20;;;;;;;6.82;97.45;100872.53;4944051;28;20028;-58
2023/01/31 07:01:11;;;;;;;0.20;0.20;;;;;;;6.80;97.53;100874.75;4942081;28;20549;-56
2023/01/31 07:03:57;;;;;;;0.22;0.22;;;;;;;6.64;98.39;100867.59;4950933;28;20126;-60
2023/01/31 07:06:23;;;;;;;0.20;0.20;;;;;;;6.61;98.29;100868.25;4890670;29;20044;-56
2023/01/31 07:08:48;;;;;;;0.20;0.20;;;;;;;6.56;99.66;100857.72;4887990;29;20045;-59
2023/01/31 07:11:14;;;;;;;0.20;0.20;;;;;;;6.76;98.24;100863.13;4885537;29;20100;-56
2023/01/31 07:13:39;;;;;;;0.20;0.20;;;;;;;6.73;97.12;100850.41;4897136;29;20111;-61
2023/01/31 07:16:05;;;;;;;0.20;0.20;;;;;;;6.78;97.79;100839.50;4882024;29;20503;-61
2023/01/31 07:18:30;;;;;;;0.20;0.20;;;;;;;6.92;97.24;100834.69;4881115;29;20511;-59
2023/01/31 07:20:56;;;;;;;0.20;0.20;;;;;;;6.68;97.50;100821.13;4884999;29;20040;-60
2023/01/31 07:23:21;;;;;;;0.20;0.20;;;;;;;6.76;98.24;100817.63;4893610;29;20491;-61
2023/01/31 07:25:47;;;;;;;0.25;0.25;;;;;;;6.84;97.55;100822.16;4884967;29;20089;-64
2023/01/31 07:28:12;;;;;;;0.20;0.20;;;;;;;6.77;97.26;100808.50;4894761;29;20036;-59
2023/01/31 07:30:38;;;;;;;0.20;0.20;;;;;;;6.82;97.21;100800.28;4896626;29;20475;-60
2023/01/31 07:33:04;;;;;;;0.30;0.30;;;;;;;6.72;97.34;100797.19;4882308;29;20041;-61
2023/01/31 07:35:29;;;;;;;0.40;0.40;;;;;;;6.72;97.62;100786.47;4893155;29;20405;-61
2023/01/31 07:37:55;;;;;;;0.22;0.22;;;;;;;6.63;97.81;100789.22;4880283;29;20065;-61
2023/01/31 07:40:21;;;;;;;0.20;0.20;;;;;;;6.71;98.14;100787.59;4886605;29;20040;-60
2023/01/31 07:42:46;;;;;;;0.30;0.30;;;;;;;6.92;96.92;100786.50;4879146;29;20047;-60
2023/01/31 07:45:14;;;;;;;0.20;0.20;;;;;;;6.94;96.52;100778.94;4941279;28;20039;-66
2023/01/31 07:47:41;;;;;;;0.20;0.20;;;;;;;6.59;98.01;100777.59;4961112;23;20048;-45
2023/01/31 07:50:07;;;;;;;0.30;0.30;;;;;;;6.75;97.40;100773.25;4913275;29;20044;-48
2023/01/31 07:52:33;;;;;;;0.30;0.30;;;;;;;6.57;98.42;100763.78;4923112;29;20040;-45
2023/01/31 07:54:58;;;;;;;1.10;0.47;;;;;;;6.69;98.21;100773.78;4929401;29;20043;-58
2023/01/31 07:57:23;;;;;;;0.20;0.20;;;;;;;6.68;98.07;100764.94;4924956;29;20035;-51
2023/01/31 07:59:49;;;;;;;0.50;0.50;;;;;;;6.65;98.55;100767.50;4927205;29;20036;-50
2023/01/31 08:05:00;;;;;;;0.20;0.20;;;;;;;6.99;97.09;100760.00;4924826;29;20672;-51
2023/01/31 08:07:27;;;;;;;0.30;0.30;;;;;;;6.97;96.77;100746.16;4924965;29;20047;-47
2023/01/31 08:09:53;;;;;;;0.20;0.20;;;;;;;6.86;96.95;100750.34;4918706;29;20047;-55
2023/01/31 08:12:19;;;;;;;0.20;0.20;;;;;;;6.97;96.82;100756.84;4918782;29;20063;-49
2023/01/31 08:14:44;;;;;;;0.40;0.40;;;;;;;7.02;96.56;100754.00;4919735;29;20039;-47
2023/01/31 08:17:10;;;;;;;0.20;0.20;;;;;;;7.05;96.56;100749.84;4925677;29;20042;-55
2023/01/31 08:19:36;;;;;;;0.20;0.20;;;;;;;6.97;96.16;100735.44;4937096;29;20071;-52
2023/01/31 08:22:03;;;;;;;0.32;0.32;;;;;;;6.98;97.16;100733.56;4920259;29;20042;-56
2023/01/31 08:24:29;;;;;;;0.20;0.20;;;;;;;7.01;96.56;100739.03;4904502;29;20035;-51
2023/01/31 08:26:55;;;;;;;0.20;0.20;;;;;;;6.96;96.72;100709.00;4915094;29;20376;-50
2023/01/31 08:29:21;;;;;;;0.25;0.25;;;;;;;7.08;96.72;100719.78;4909172;29;20047;-49
2023/01/31 08:31:46;;;;;;;0.20;0.20;;;;;;;7.22;96.21;100714.88;4907492;29;20038;-50
2023/01/31 08:34:12;;;;;;;0.57;0.57;;;;;;;7.07;96.49;100716.31;4919871;29;20099;-54
2023/01/31 08:36:37;;;;;;;0.20;0.20;;;;;;;7.05;96.90;100715.06;4916685;29;20479;-51
2023/01/31 08:39:03;;;;;;;0.30;0.30;;;;;;;7.08;96.48;100707.16;4914194;29;20067;-56
2023/01/31 08:41:30;;;;;;;0.30;0.30;;;;;;;7.24;96.32;100718.00;4916705;29;20134;-52
2023/01/31 08:43:56;;;;;;;0.40;0.40;;;;;;;7.18;95.87;100714.00;4925213;29;20398;-47
2023/01/31 08:46:28;;;;;;;0.52;0.52;;;;;;;6.99;97.16;100709.13;4917115;29;20036;-48
2023/01/31 08:48:54;;;;;;;0.45;0.45;;;;;;;6.99;97.66;100717.16;4910080;29;20040;-49
2023/01/31 08:51:21;;;;;;;0.20;0.20;;;;;;;6.93;97.45;100697.06;4913053;29;20036;-45
2023/01/31 08:53:46;;;;;;;0.30;0.30;;;;;;;7.07;97.66;100700.25;4908986;29;20095;-45
2023/01/31 08:56:12;;;;;;;1.20;1.13;;;;;;;7.08;96.89;100696.44;4915143;29;20688;-46
2023/01/31 08:58:40;;;;;;;0.38;0.38;;;;;;;7.26;97.17;100705.88;4917127;29;20471;-45
2023/01/31 09:01:17;;;;;;;1.55;0.50;;;;;;;7.29;95.88;100689.16;4921953;29;20044;-53
2023/01/31 09:03:44;;;;;;;0.25;0.25;;;;;;;7.29;96.59;100681.13;4919887;29;20039;-52
2023/01/31 09:06:13;;;;;;;0.20;0.20;;;;;;;7.49;95.30;100681.38;4926102;29;20023;-47
2023/01/31 09:08:39;;;;;;;0.20;0.20;;;;;;;7.39;96.05;100665.72;4914254;29;20039;-45
2023/01/31 09:11:04;;;;;;;0.20;0.20;;;;;;;7.34;95.98;100669.41;4918447;29;20040;-45
2023/01/31 09:13:30;;;;;;;0.40;0.40;;;;;;;7.41;95.87;100660.81;4922306;29;20036;-55
2023/01/31 09:15:58;;;;;;;0.20;0.20;;;;;;;7.28;95.93;100666.16;4926354;29;20032;-49
2023/01/31 09:18:23;;;;;;;0.43;0.43;;;;;;;7.36;95.72;100655.66;4913046;29;20060;-50
2023/01/31 09:20:49;;;;;;;1.05;1.02;;;;;;;7.36;96.03;100644.94;4905606;29;20526;-57
2023/01/31 09:23:14;;;;;;;0.38;0.38;;;;;;;7.42;95.75;100646.28;4905768;29;20103;-48
2023/01/31 09:25:39;;;;;;;0.20;0.20;;;;;;;7.43;95.47;100637.16;4909299;29;20031;-48
2023/01/31 09:28:05;;;;;;;0.20;0.20;;;;;;;7.40;95.77;100630.56;4907646;29;20130;-53
2023/01/31 09:30:30;;;;;;;0.35;0.35;;;;;;;7.44;96.23;100626.09;4923712;29;20795;-47
2023/01/31 09:33:00;;;;;;;0.55;0.55;;;;;;;7.36;96.57;100620.84;4920818;29;20047;-43
2023/01/31 09:35:25;;;;;;;0.20;0.20;;;;;;;7.32;97.14;100616.16;4903585;29;20052;-54
2023/01/31 09:37:51;;;;;;;0.38;0.38;;;;;;;7.42;96.60;100608.78;4915445;29;20024;-46
2023/01/31 09:40:25;;;;;;;0.38;0.38;;;;;;;7.40;96.96;100608.34;4913766;29;20028;-53
2023/01/31 09:42:53;;;;;;;0.30;0.30;;;;;;;7.45;96.92;100608.94;4909680;29;20131;-51
2023/01/31 09:45:35;;;;;;;0.43;0.43;;;;;;;7.39;97.55;100620.19;4911155;29;20099;-49
2023/01/31 09:48:04;;;;;;;0.47;0.47;;;;;;;7.41;96.93;100596.53;4911092;29;20036;-48
2023/01/31 09:50:39;;;;;;;0.30;0.30;;;;;;;7.50;96.10;100586.47;4905333;29;20055;-49
2023/01/31 09:53:04;;;;;;;0.20;0.20;;;;;;;7.55;96.28;100570.94;4907816;29;20103;-50
2023/01/31 09:55:55;;;;;;;0.35;0.35;;;;;;;7.36;96.89;100569.94;4917255;29;20043;-44
2023/01/31 09:58:40;;;;;;;0.30;0.30;;;;;;;7.22;98.49;100563.03;4914804;29;20127;-49
2023/01/31 10:01:21;;;;;;;0.20;0.20;;;;;;;7.42;97.77;100563.25;4918967;29;20440;-54
2023/01/31 10:03:55;;;;;;;0.30;0.30;;;;;;;7.46;97.52;100564.16;4919843;29;20046;-49
2023/01/31 10:06:50;;;;;;;0.28;0.28;;;;;;;7.19;99.26;100566.41;4918414;29;20255;-46
2023/01/31 10:09:18;;;;;;;0.20;0.20;;;;;;;7.08;99.95;100557.22;4918064;29;20039;-47
2023/01/31 10:11:51;;;;;;;0.20;0.20;;;;;;;7.28;99.33;100545.63;4914293;29;20043;-44
2023/01/31 10:14:49;;;;;;;0.20;0.20;;;;;;;7.10;100.00;100535.50;4917475;29;20055;-45
2023/01/31 10:17:35;;;;;;;0.25;0.25;;;;;;;7.32;99.42;100531.59;4922972;29;20028;-48
2023/01/31 10:20:24;;;;;;;0.22;0.22;;;;;;;7.39;99.74;100534.47;4904812;29;20078;-49
2023/01/31 10:22:58;;;;;;;0.40;0.40;;;;;;;7.42;99.61;100534.59;4905336;29;20572;-45
2023/01/31 10:25:31;;;;;;;0.30;0.30;;;;;;;7.36;100.00;100532.44;4911267;29;20063;-51
2023/01/31 10:28:01;;;;;;;0.20;0.20;;;;;;;7.30;100.00;100524.66;4905079;29;20907;-44
2023/01/31 10:30:40;;;;;;;0.30;0.30;;;;;;;7.19;100.00;100518.19;4909596;29;20044;-54
2023/01/31 10:33:55;;;;;;;0.20;0.20;;;;;;;7.34;100.00;100521.31;4914017;29;20296;-47
2023/01/31 10:36:39;;;;;;;0.30;0.30;;;;;;;7.48;100.00;100517.16;4904641;29;20059;-45
2023/01/31 10:39:16;;;;;;;0.20;0.20;;;;;;;7.24;100.00;100507.25;4913169;29;20036;-48
2023/01/31 10:42:00;;;;;;;0.20;0.20;;;;;;;7.35;100.00;100514.84;4913576;29;20770;-49
2023/01/31 10:44:31;;;;;;;0.30;0.30;;;;;;;7.30;100.00;100497.09;4910029;29;20099;-49
2023/01/31 10:46:58;;;;;;;0.90;0.57;;;;;;;7.32;100.00;100490.28;4912948;29;20115;-43
2023/01/31 10:49:26;;;;;;;0.20;0.20;;;;;;;7.48;100.00;100493.06;4910388;29;20587;-50
2023/01/31 10:52:03;;;;;;;0.40;0.40;;;;;;;7.54;100.00;100478.31;4914031;29;20507;-53
2023/01/31 10:54:46;;;;;;;0.38;0.32;;;;;;;7.67;100.00;100473.69;4913474;29;20065;-54
2023/01/31 10:57:12;;;;;;;0.30;0.30;;;;;;;7.63;100.00;100473.59;4912235;29;20059;-54
2023/01/31 10:59:44;;;;;;;0.40;0.40;;;;;;;7.59;100.00;100463.91;4912950;29;20396;-47
2023/01/31 11:02:21;;;;;;;0.20;0.20;;;;;;;7.56;100.00;100470.72;4926580;29;20454;-50
2023/01/31 11:04:49;;;;;;;0.30;0.30;;;;;;;7.63;100.00;100456.72;4919976;29;20036;-44
2023/01/31 11:07:14;;;;;;;0.20;0.20;;;;;;;7.72;100.00;100462.75;4926992;29;20045;-49
2023/01/31 11:09:46;;;;;;;0.93;0.93;;;;;;;7.60;100.00;100444.03;4918767;29;20032;-51
2023/01/31 11:12:11;;;;;;;;;;;;;;;7.61;100.00;100437.53;4912614;29;20043;-44
2023/01/31 11:14:38;;;;;;;0.20;0.20;;;;;;;7.59;100.00;100429.09;4912817;29;19915;-47
2023/01/31 11:17:08;;;;;;;0.20;0.20;;;;;;;7.58;100.00;100438.22;4915032;29;20505;-44
2023/01/31 11:19:39;;;;;;;0.30;0.30;;;;;;;7.61;100.00;100442.88;4917613;29;20040;-44
2023/01/31 11:22:06;;;;;;;0.20;0.20;;;;;;;7.63;100.00;100462.09;4913507;29;20331;-53
2023/01/31 11:24:36;;;;;;;0.88;0.57;;;;;;;7.14;100.00;100454.16;4919073;29;20100;-48
2023/01/31 11:27:08;;;;;;;0.93;0.28;;;;;;;7.45;100.00;100455.44;4919048;29;20137;-52
2023/01/31 11:29:54;;;;;;;0.65;0.65;;;;;;;7.62;100.00;100442.56;4922469;29;20070;-53
2023/01/31 11:32:23;;;;;;;0.52;0.52;;;;;;;7.70;100.00;100435.50;4919776;29;20044;-47
2023/01/31 11:35:15;;;;;;;0.15;0.15;;;;;;;7.80;100.00;100437.72;4915424;29;20047;-53
2023/01/31 11:37:57;;;;;;;0.55;0.55;;;;;;;7.54;100.00;100434.66;4907416;29;20052;-49
2023/01/31 11:40:29;;;;;;;0.20;0.20;;;;;;;7.80;100.00;100429.66;4912180;29;20091;-52
2023/01/31 11:43:00;;;;;;;1.00;1.00;;;;;;;7.85;100.00;100429.41;4913477;29;20047;-48
2023/01/31 11:46:02;;;;;;;0.28;0.28;;;;;;;7.63;100.00;100421.91;4912781;29;20043;-49
2023/01/31 11:48:46;;;;;;;;;;;;;;;7.81;100.00;100423.97;4907353;29;20048;-44
2023/01/31 11:51:25;;;;;;;0.20;0.20;;;;;;;7.73;100.00;100424.09;4915190;29;19923;-45
2023/01/31 11:53:52;;;;;;;0.20;0.20;;;;;;;7.99;100.00;100411.03;4916559;29;20040;-44
2023/01/31 11:56:24;;;;;;;0.28;0.28;;;;;;;7.70;100.00;100409.50;4913122;29;20035;-44